sensor_id;sensor_type;location;lat;lon;timestamp;P1;durP1;ratioP1;P2;durP2;ratioP2
73895;SDS011;73986;50.770;6.080;2023-11-21T00:06:41;12.23;;;4.30;;
73895;SDS011;73986;50.770;6.080;2023-11-21T00:16:46;11.18;;;3.90;;
73895;SDS011;73986;50.770;6.080;2023-11-21T00:26:49;10.95;;;3.70;;
73895;SDS011;73986;50.770;6.080;2023-11-21T00:36:51;7.60;;;3.28;;
73895;SDS011;73986;50.770;6.080;2023-11-21T00:46:54;20.80;;;5.18;;
73895;SDS011;73986;50.770;6.080;2023-11-21T00:56:56;17.35;;;6.65;;
73895;SDS011;73986;50.770;6.080;2023-11-21T01:06:59;16.70;;;5.80;;
73895;SDS011;73986;50.770;6.080;2023-11-21T01:17:01;25.63;;;7.15;;
73895;SDS011;73986;50.770;6.080;2023-11-21T01:27:06;17.02;;;6.13;;
73895;SDS011;73986;50.770;6.080;2023-11-21T01:37:09;25.60;;;7.78;;
73895;SDS011;73986;50.770;6.080;2023-11-21T01:47:13;12.57;;;6.10;;
73895;SDS011;73986;50.770;6.080;2023-11-21T01:57:15;20.10;;;7.07;;
73895;SDS011;73986;50.770;6.080;2023-11-21T02:07:18;18.70;;;6.25;;
73895;SDS011;73986;50.770;6.080;2023-11-21T02:17:20;18.27;;;6.53;;
73895;SDS011;73986;50.770;6.080;2023-11-21T02:27:23;17.90;;;4.72;;
73895;SDS011;73986;50.770;6.080;2023-11-21T02:37:27;25.20;;;7.65;;
73895;SDS011;73986;50.770;6.080;2023-11-21T02:47:30;16.73;;;5.72;;
73895;SDS011;73986;50.770;6.080;2023-11-21T02:57:32;14.57;;;4.93;;
73895;SDS011;73986;50.770;6.080;2023-11-21T03:07:35;17.65;;;6.38;;
73895;SDS011;73986;50.770;6.080;2023-11-21T03:17:38;18.95;;;5.85;;
73895;SDS011;73986;50.770;6.080;2023-11-21T03:27:42;13.77;;;4.60;;
73895;SDS011;73986;50.770;6.080;2023-11-21T03:37:44;13.68;;;4.18;;
73895;SDS011;73986;50.770;6.080;2023-11-21T03:47:47;12.23;;;4.75;;
73895;SDS011;73986;50.770;6.080;2023-11-21T03:57:48;10.40;;;4.32;;
73895;SDS011;73986;50.770;6.080;2023-11-21T04:07:52;16.30;;;3.30;;
73895;SDS011;73986;50.770;6.080;2023-11-21T04:17:54;11.02;;;3.97;;
73895;SDS011;73986;50.770;6.080;2023-11-21T04:27:58;11.32;;;3.65;;
73895;SDS011;73986;50.770;6.080;2023-11-21T04:37:59;11.85;;;3.92;;
73895;SDS011;73986;50.770;6.080;2023-11-21T04:48:02;14.23;;;6.60;;
73895;SDS011;73986;50.770;6.080;2023-11-21T04:58:04;13.65;;;4.75;;
73895;SDS011;73986;50.770;6.080;2023-11-21T05:08:07;14.60;;;5.35;;
73895;SDS011;73986;50.770;6.080;2023-11-21T05:18:09;14.85;;;5.50;;
73895;SDS011;73986;50.770;6.080;2023-11-21T05:28:12;16.23;;;5.45;;
73895;SDS011;73986;50.770;6.080;2023-11-21T05:38:14;16.38;;;5.60;;
73895;SDS011;73986;50.770;6.080;2023-11-21T05:48:17;13.75;;;4.68;;
73895;SDS011;73986;50.770;6.080;2023-11-21T05:58:18;15.57;;;6.15;;
73895;SDS011;73986;50.770;6.080;2023-11-21T06:08:21;19.52;;;6.18;;
73895;SDS011;73986;50.770;6.080;2023-11-21T06:18:24;15.98;;;6.47;;
73895;SDS011;73986;50.770;6.080;2023-11-21T06:28:27;26.83;;;8.00;;
73895;SDS011;73986;50.770;6.080;2023-11-21T06:38:29;20.70;;;6.30;;
73895;SDS011;73986;50.770;6.080;2023-11-21T06:48:33;29.65;;;8.30;;
73895;SDS011;73986;50.770;6.080;2023-11-21T06:58:35;24.70;;;6.75;;
73895;SDS011;73986;50.770;6.080;2023-11-21T07:08:38;19.95;;;7.20;;
73895;SDS011;73986;50.770;6.080;2023-11-21T07:18:39;25.08;;;8.15;;
73895;SDS011;73986;50.770;6.080;2023-11-21T07:28:42;21.65;;;7.57;;
73895;SDS011;73986;50.770;6.080;2023-11-21T07:38:44;23.52;;;8.30;;
73895;SDS011;73986;50.770;6.080;2023-11-21T07:48:47;25.02;;;8.32;;
73895;SDS011;73986;50.770;6.080;2023-11-21T07:58:49;33.30;;;10.15;;
73895;SDS011;73986;50.770;6.080;2023-11-21T08:08:52;29.60;;;8.07;;
73895;SDS011;73986;50.770;6.080;2023-11-21T08:18:53;35.40;;;10.57;;
73895;SDS011;73986;50.770;6.080;2023-11-21T08:28:57;32.58;;;8.93;;
73895;SDS011;73986;50.770;6.080;2023-11-21T08:38:58;39.42;;;9.88;;
73895;SDS011;73986;50.770;6.080;2023-11-21T08:49:02;28.75;;;8.82;;
73895;SDS011;73986;50.770;6.080;2023-11-21T08:59:04;29.95;;;9.32;;
73895;SDS011;73986;50.770;6.080;2023-11-21T09:09:07;39.85;;;9.70;;
73895;SDS011;73986;50.770;6.080;2023-11-21T09:19:10;39.83;;;9.15;;
73895;SDS011;73986;50.770;6.080;2023-11-21T09:29:13;29.15;;;10.20;;
73895;SDS011;73986;50.770;6.080;2023-11-21T09:39:15;29.90;;;7.82;;
73895;SDS011;73986;50.770;6.080;2023-11-21T09:59:22;33.92;;;9.55;;
73895;SDS011;73986;50.770;6.080;2023-11-21T10:09:23;26.60;;;8.07;;
73895;SDS011;73986;50.770;6.080;2023-11-21T10:19:28;22.70;;;7.88;;
73895;SDS011;73986;50.770;6.080;2023-11-21T10:29:33;30.42;;;7.28;;
73895;SDS011;73986;50.770;6.080;2023-11-21T10:39:37;26.05;;;6.07;;
73895;SDS011;73986;50.770;6.080;2023-11-21T10:49:40;30.83;;;7.97;;
73895;SDS011;73986;50.770;6.080;2023-11-21T10:59:44;28.00;;;7.40;;
73895;SDS011;73986;50.770;6.080;2023-11-21T11:09:49;24.77;;;6.83;;
73895;SDS011;73986;50.770;6.080;2023-11-21T11:19:52;18.48;;;5.78;;
73895;SDS011;73986;50.770;6.080;2023-11-21T11:29:56;22.15;;;6.30;;
73895;SDS011;73986;50.770;6.080;2023-11-21T11:40:10;30.20;;;7.35;;
73895;SDS011;73986;50.770;6.080;2023-11-21T11:50:12;27.08;;;7.03;;
73895;SDS011;73986;50.770;6.080;2023-11-21T12:00:18;15.73;;;5.18;;
73895;SDS011;73986;50.770;6.080;2023-11-21T12:10:25;15.23;;;4.82;;
73895;SDS011;73986;50.770;6.080;2023-11-21T12:20:29;18.52;;;5.32;;
73895;SDS011;73986;50.770;6.080;2023-11-21T12:30:34;18.45;;;5.13;;
73895;SDS011;73986;50.770;6.080;2023-11-21T12:40:39;22.20;;;4.30;;
73895;SDS011;73986;50.770;6.080;2023-11-21T12:50:40;14.77;;;4.63;;
73895;SDS011;73986;50.770;6.080;2023-11-21T13:00:44;20.33;;;5.68;;
73895;SDS011;73986;50.770;6.080;2023-11-21T13:10:48;19.88;;;6.57;;
73895;SDS011;73986;50.770;6.080;2023-11-21T13:20:53;20.75;;;5.97;;
73895;SDS011;73986;50.770;6.080;2023-11-21T13:30:56;25.20;;;7.15;;
73895;SDS011;73986;50.770;6.080;2023-11-21T13:41:04;18.97;;;4.70;;
73895;SDS011;73986;50.770;6.080;2023-11-21T13:51:08;14.43;;;4.33;;
73895;SDS011;73986;50.770;6.080;2023-11-21T14:01:18;15.02;;;4.55;;
73895;SDS011;73986;50.770;6.080;2023-11-21T14:11:45;16.27;;;5.18;;
73895;SDS011;73986;50.770;6.080;2023-11-21T14:21:47;19.88;;;5.03;;
73895;SDS011;73986;50.770;6.080;2023-11-21T14:31:49;13.25;;;4.68;;
73895;SDS011;73986;50.770;6.080;2023-11-21T14:41:55;27.95;;;5.53;;
73895;SDS011;73986;50.770;6.080;2023-11-21T14:51:58;18.00;;;4.95;;
73895;SDS011;73986;50.770;6.080;2023-11-21T15:02:04;21.88;;;6.75;;
73895;SDS011;73986;50.770;6.080;2023-11-21T15:12:15;20.70;;;5.07;;
73895;SDS011;73986;50.770;6.080;2023-11-21T15:22:21;16.48;;;4.25;;
73895;SDS011;73986;50.770;6.080;2023-11-21T15:32:23;20.08;;;5.60;;
73895;SDS011;73986;50.770;6.080;2023-11-21T15:42:27;18.60;;;6.40;;
73895;SDS011;73986;50.770;6.080;2023-11-21T15:52:29;19.23;;;6.07;;
73895;SDS011;73986;50.770;6.080;2023-11-21T16:02:32;16.05;;;5.03;;
73895;SDS011;73986;50.770;6.080;2023-11-21T16:12:33;19.00;;;6.60;;
73895;SDS011;73986;50.770;6.080;2023-11-21T16:22:36;21.35;;;6.68;;
73895;SDS011;73986;50.770;6.080;2023-11-21T16:32:38;16.65;;;6.65;;
73895;SDS011;73986;50.770;6.080;2023-11-21T16:42:42;18.58;;;6.47;;
73895;SDS011;73986;50.770;6.080;2023-11-21T16:52:43;18.75;;;6.88;;
73895;SDS011;73986;50.770;6.080;2023-11-21T17:02:47;17.63;;;6.65;;
73895;SDS011;73986;50.770;6.080;2023-11-21T17:23:00;30.33;;;10.30;;
73895;SDS011;73986;50.770;6.080;2023-11-21T17:33:04;30.77;;;9.35;;
73895;SDS011;73986;50.770;6.080;2023-11-21T17:43:08;32.92;;;10.35;;
73895;SDS011;73986;50.770;6.080;2023-11-21T17:53:10;32.97;;;11.45;;
73895;SDS011;73986;50.770;6.080;2023-11-21T18:03:13;36.45;;;10.82;;
73895;SDS011;73986;50.770;6.080;2023-11-21T18:13:15;38.33;;;10.55;;
73895;SDS011;73986;50.770;6.080;2023-11-21T18:23:19;25.40;;;8.00;;
73895;SDS011;73986;50.770;6.080;2023-11-21T18:33:21;22.05;;;7.97;;
73895;SDS011;73986;50.770;6.080;2023-11-21T18:43:24;30.02;;;10.40;;
73895;SDS011;73986;50.770;6.080;2023-11-21T18:53:26;38.80;;;13.30;;
73895;SDS011;73986;50.770;6.080;2023-11-21T19:03:30;36.53;;;12.65;;
73895;SDS011;73986;50.770;6.080;2023-11-21T19:13:32;26.42;;;9.52;;
73895;SDS011;73986;50.770;6.080;2023-11-21T19:23:35;20.02;;;7.82;;
73895;SDS011;73986;50.770;6.080;2023-11-21T19:33:37;40.83;;;15.32;;
73895;SDS011;73986;50.770;6.080;2023-11-21T19:43:41;27.15;;;8.77;;
73895;SDS011;73986;50.770;6.080;2023-11-21T19:53:43;19.42;;;8.65;;
73895;SDS011;73986;50.770;6.080;2023-11-21T20:03:46;24.00;;;9.70;;
73895;SDS011;73986;50.770;6.080;2023-11-21T20:13:48;38.30;;;10.05;;
73895;SDS011;73986;50.770;6.080;2023-11-21T20:23:51;26.08;;;9.68;;
73895;SDS011;73986;50.770;6.080;2023-11-21T20:33:53;24.75;;;8.57;;
73895;SDS011;73986;50.770;6.080;2023-11-21T20:43:56;23.67;;;9.80;;
73895;SDS011;73986;50.770;6.080;2023-11-21T20:54:01;22.45;;;9.05;;
73895;SDS011;73986;50.770;6.080;2023-11-21T21:04:06;22.02;;;7.63;;
73895;SDS011;73986;50.770;6.080;2023-11-21T21:14:08;24.52;;;10.23;;
73895;SDS011;73986;50.770;6.080;2023-11-21T21:24:13;25.42;;;9.80;;
73895;SDS011;73986;50.770;6.080;2023-11-21T21:34:14;26.77;;;10.43;;
73895;SDS011;73986;50.770;6.080;2023-11-21T21:44:20;25.23;;;9.27;;
73895;SDS011;73986;50.770;6.080;2023-11-21T21:54:22;27.35;;;10.73;;
73895;SDS011;73986;50.770;6.080;2023-11-21T22:04:27;24.85;;;9.38;;
73895;SDS011;73986;50.770;6.080;2023-11-21T22:14:34;18.48;;;7.75;;
73895;SDS011;73986;50.770;6.080;2023-11-21T22:34:57;24.40;;;9.23;;
73895;SDS011;73986;50.770;6.080;2023-11-21T23:06:56;28.02;;;9.02;;
73895;SDS011;73986;50.770;6.080;2023-11-21T23:17:05;22.63;;;9.30;;
73895;SDS011;73986;50.770;6.080;2023-11-21T23:27:08;20.30;;;7.80;;
73895;SDS011;73986;50.770;6.080;2023-11-21T23:37:11;21.48;;;8.35;;
73895;SDS011;73986;50.770;6.080;2023-11-21T23:47:17;20.02;;;8.00;;
73895;SDS011;73986;50.770;6.080;2023-11-21T23:57:27;28.00;;;12.07;;
